Providence Village's Hourly Summary for Monday, May 14, 2018
Hour Temp
(f)
RH
(%)
Solar Rad.
(MJ/m2)
Rainfall
(in)
Wind
(mph)
5/14/2018 12:00 AM 81 62 0 0 5.33
5/14/2018 1:00 AM 80 64 0 0 4.34
5/14/2018 2:00 AM 79 68 0 0 4
5/14/2018 3:00 AM 78 70 0 0 3.91
5/14/2018 4:00 AM 77 74 0 0 5.09
5/14/2018 5:00 AM 76 77 0 0 5.07
5/14/2018 6:00 AM 75 80 0 0 6.74
5/14/2018 7:00 AM 74 84 0.02 0 5.58
5/14/2018 8:00 AM 74 83 0.34 0 7.58
5/14/2018 9:00 AM 75 77 0.76 0 9.33
5/14/2018 10:00 AM 77 70 1.21 0 9.91
5/14/2018 11:00 AM 79 64 2.2 0 10.12
5/14/2018 12:00 PM 82 59 2.52 0 8.48
5/14/2018 1:00 PM 83 55 2.59 0 8.16
5/14/2018 2:00 PM 85 53 3.18 0 8.34
5/14/2018 3:00 PM 87 50 2.86 0 8.29
5/14/2018 4:00 PM 87 50 2.1 0 7.06
5/14/2018 5:00 PM 87 48 2.18 0 7.07
5/14/2018 6:00 PM 87 49 1.79 0 7.63
5/14/2018 7:00 PM 86 51 0.83 0 5.78
5/14/2018 8:00 PM 84 54 0.16 0 5.07
5/14/2018 9:00 PM 83 57 0.01 0 5.04
5/14/2018 10:00 PM 82 61 0 0 5.49
5/14/2018 11:00 PM 81 63 0 0 5.25
Data Summary 80 63 22.75 0.00 6.61